Time;durP1;ratioP1;P1;durP2;ratioP2;P2;SDS_P1;SDS_P2;PMS_P1;PMS_P2;Temp;Humidity;BMP_temperature;BMP_pressure;BME280_temperature;BME280_humidity;BME280_pressure;Samples;Min_cycle;Max_cycle;Signal;HPM_P1;HPM_P2
2022/02/07 00:02:22;;;;;;;15.25;9.18;;;10.60;96.70;;;;;;4994085;28;20088;-76
2022/02/07 00:04:50;;;;;;;22.08;13.05;;;10.60;96.70;;;;;;4998701;28;20137;-77
2022/02/07 00:07:19;;;;;;;23.40;14.45;;;10.50;96.70;;;;;;4981426;28;20034;-77
2022/02/07 00:09:47;;;;;;;18.67;11.27;;;10.40;96.70;;;;;;4978779;28;20042;-77
2022/02/07 00:12:16;;;;;;;18.00;9.82;;;10.30;96.70;;;;;;4985870;28;20096;-76
2022/02/07 00:14:44;;;;;;;28.45;16.92;;;10.20;96.70;;;;;;4981623;28;20468;-77
2022/02/07 00:17:13;;;;;;;15.98;10.07;;;10.20;96.70;;;;;;4997638;28;20046;-77
2022/02/07 00:19:41;;;;;;;13.48;8.40;;;10.20;96.70;;;;;;4982377;28;20038;-77
2022/02/07 00:22:09;;;;;;;15.80;9.18;;;10.20;96.70;;;;;;4984606;28;20078;-77
2022/02/07 00:24:37;;;;;;;15.18;8.93;;;10.20;96.70;;;;;;4982978;28;20101;-77
2022/02/07 00:27:05;;;;;;;11.70;7.60;;;10.40;96.70;;;;;;4988275;28;20053;-77
2022/02/07 00:29:35;;;;;;;11.98;7.88;;;10.60;96.70;;;;;;5000679;28;20488;-77
2022/02/07 00:32:04;;;;;;;11.98;7.93;;;10.70;96.70;;;;;;4985796;28;20571;-77
2022/02/07 00:34:31;;;;;;;13.50;8.15;;;10.70;96.70;;;;;;4981984;28;20061;-77
2022/02/07 00:37:00;;;;;;;12.70;8.77;;;10.80;96.70;;;;;;4992332;28;20164;-77
2022/02/07 00:39:36;;;;;;;15.75;8.90;;;10.80;96.70;;;;;;4988991;28;20041;-77
2022/02/07 00:42:07;;;;;;;10.77;8.18;;;10.80;96.70;;;;;;4988939;28;20072;-77
2022/02/07 00:44:37;;;;;;;12.13;8.63;;;10.90;96.70;;;;;;4986808;28;20061;-77
2022/02/07 00:47:09;;;;;;;13.77;8.90;;;10.80;96.70;;;;;;5008147;28;20551;-77
2022/02/07 00:49:37;;;;;;;12.98;8.57;;;10.70;96.70;;;;;;4988467;28;20052;-77
2022/02/07 00:52:05;;;;;;;14.60;8.63;;;10.70;96.70;;;;;;5003721;28;20137;-77
2022/02/07 00:54:33;;;;;;;12.07;8.38;;;10.80;96.70;;;;;;4988187;28;20418;-77
2022/02/07 00:57:01;;;;;;;12.98;9.05;;;10.90;96.70;;;;;;5000729;28;20547;-77
2022/02/07 00:59:29;;;;;;;12.77;8.50;;;10.90;96.70;;;;;;5003890;28;20044;-77
2022/02/07 01:01:58;;;;;;;11.77;8.55;;;10.90;96.70;;;;;;4989915;28;20156;-77
2022/02/07 01:04:27;;;;;;;14.77;8.70;;;10.90;96.70;;;;;;4999172;28;20053;-77
2022/02/07 01:07:07;;;;;;;11.20;7.63;;;10.90;96.70;;;;;;5004145;28;20069;-77
2022/02/07 01:09:45;;;;;;;13.00;8.35;;;10.90;96.70;;;;;;4985544;28;20057;-77
2022/02/07 01:15:30;;;;;;;11.07;7.20;;;10.80;96.70;;;;;;5001776;28;20331;-78
2022/02/07 01:56:56;;;;;;;11.25;6.10;;;10.60;96.70;;;;;;5005790;28;20050;-77
2022/02/07 01:59:25;;;;;;;10.88;5.43;;;10.70;96.70;;;;;;4990493;28;20041;-78
2022/02/07 02:01:53;;;;;;;7.63;5.28;;;10.70;96.70;;;;;;5003651;28;20045;-77
2022/02/07 02:04:21;;;;;;;9.30;4.95;;;10.70;96.70;;;;;;4994015;28;20052;-77
2022/02/07 02:06:51;;;;;;;16.30;5.82;;;10.80;96.70;;;;;;4992230;28;20472;-77
2022/02/07 02:09:27;;;;;;;8.43;4.53;;;10.70;96.70;;;;;;5003838;28;20042;-77
2022/02/07 02:11:57;;;;;;;7.30;3.95;;;10.60;96.70;;;;;;4972929;28;20364;-77
2022/02/07 02:17:22;;;;;;;16.35;4.60;;;10.60;96.70;;;;;;4984355;28;20129;-77
2022/02/07 02:47:23;;;;;;;12.32;3.70;;;10.60;96.70;;;;;;5004137;28;20038;-77
2022/02/07 02:50:16;;;;;;;12.05;3.50;;;10.60;96.70;;;;;;4997064;28;20137;-77
2022/02/07 02:52:44;;;;;;;9.93;3.15;;;10.60;96.70;;;;;;5006760;28;20308;-77
2022/02/07 02:55:14;;;;;;;9.40;3.30;;;10.60;96.70;;;;;;5009878;28;20453;-77
2022/02/07 02:57:42;;;;;;;9.63;2.97;;;10.70;96.70;;;;;;4990628;28;20506;-77
2022/02/07 03:00:11;;;;;;;7.90;2.45;;;10.70;96.70;;;;;;4987318;28;20140;-77
2022/02/07 03:02:40;;;;;;;6.70;2.70;;;10.80;96.70;;;;;;4989813;28;20519;-77
2022/02/07 03:05:09;;;;;;;6.95;2.70;;;10.80;96.70;;;;;;5003475;28;20514;-77
2022/02/07 03:07:37;;;;;;;8.63;2.75;;;10.80;96.70;;;;;;4977296;28;20052;-77
2022/02/07 03:10:07;;;;;;;8.27;2.28;;;10.80;96.70;;;;;;4993197;28;20050;-77
2022/02/07 03:12:58;;;;;;;7.43;2.00;;;10.90;96.70;;;;;;5005210;28;20625;-78
2022/02/07 03:18:16;;;;;;;6.90;2.33;;;10.90;96.70;;;;;;5004193;28;20459;-77
2022/02/07 03:20:44;;;;;;;7.25;2.55;;;11.00;96.70;;;;;;5003660;28;20116;-77
2022/02/07 03:23:12;;;;;;;5.80;2.22;;;11.00;96.70;;;;;;5005610;28;20169;-78
2022/02/07 03:25:40;;;;;;;6.47;2.55;;;11.10;96.70;;;;;;5007315;28;20068;-78
2022/02/07 03:28:10;;;;;;;8.23;2.50;;;11.10;96.70;;;;;;4983903;28;20046;-77
2022/02/07 03:30:41;;;;;;;8.98;2.53;;;11.10;96.70;;;;;;4973079;28;21495;-78
2022/02/07 03:33:10;;;;;;;7.57;2.05;;;11.10;96.70;;;;;;5007324;28;20041;-77
2022/02/07 03:35:38;;;;;;;9.70;2.38;;;11.10;96.70;;;;;;5005217;28;20136;-77
2022/02/07 03:38:08;;;;;;;12.20;3.90;;;11.10;96.70;;;;;;5005530;28;20066;-78
2022/02/07 03:40:37;;;;;;;9.75;2.10;;;11.00;96.70;;;;;;4984787;28;20057;-78
2022/02/07 03:43:06;;;;;;;8.48;2.25;;;11.00;96.70;;;;;;5000467;28;20049;-78
2022/02/07 03:45:37;;;;;;;10.38;2.10;;;10.90;96.70;;;;;;4969446;28;20057;-77
2022/02/07 03:48:12;;;;;;;7.20;2.17;;;11.00;96.70;;;;;;4994415;28;20496;-77
2022/02/07 03:50:41;;;;;;;10.27;1.92;;;10.90;96.70;;;;;;4984550;28;20046;-77
2022/02/07 03:53:11;;;;;;;7.88;2.70;;;10.90;96.70;;;;;;5001290;28;20044;-77
2022/02/07 03:55:53;;;;;;;10.02;3.83;;;10.90;96.70;;;;;;4986499;28;20045;-77
2022/02/07 03:58:21;;;;;;;13.65;4.03;;;10.90;96.70;;;;;;4985626;28;20041;-78
2022/02/07 04:00:54;;;;;;;8.88;2.88;;;10.90;96.70;;;;;;5004466;28;20615;-77
2022/02/07 04:03:52;;;;;;;14.52;3.03;;;11.00;96.70;;;;;;4944020;28;20865;-77
2022/02/07 04:06:22;;;;;;;14.68;4.13;;;11.00;96.70;;;;;;4910097;28;20054;-78
2022/02/07 04:09:02;;;;;;;12.63;2.95;;;11.00;96.70;;;;;;4936874;28;20047;-77
2022/02/07 04:11:43;;;;;;;19.48;5.50;;;11.00;96.70;;;;;;4925199;28;20058;-77
2022/02/07 04:14:20;;;;;;;22.00;7.37;;;11.00;96.70;;;;;;4910733;28;20043;-78
2022/02/07 04:16:53;;;;;;;14.85;4.65;;;11.00;96.70;;;;;;4928358;29;20302;-82
2022/02/07 04:19:40;;;;;;;33.58;13.55;;;11.10;96.70;;;;;;4947150;28;20051;-81
2022/02/07 04:22:11;;;;;;;18.80;5.72;;;11.10;96.70;;;;;;4914541;28;20654;-82
2022/02/07 04:24:55;;;;;;;16.98;5.80;;;11.10;96.70;;;;;;4925440;28;20067;-82
2022/02/07 04:27:33;;;;;;;19.15;4.00;;;11.20;96.70;;;;;;4932626;28;20047;-81
2022/02/07 04:30:02;;;;;;;19.08;5.38;;;11.20;96.70;;;;;;4919593;28;20048;-82
2022/02/07 04:32:35;;;;;;;18.67;4.18;;;11.20;96.70;;;;;;4949042;28;20456;-81
2022/02/07 04:35:03;;;;;;;16.42;3.15;;;11.30;96.70;;;;;;4945125;28;20046;-81
2022/02/07 04:37:32;;;;;;;11.75;3.25;;;11.20;96.70;;;;;;4928779;28;20055;-81
2022/02/07 04:40:00;;;;;;;14.38;2.88;;;11.20;96.70;;;;;;4951635;28;20041;-81
2022/02/07 04:42:33;;;;;;;13.65;3.00;;;11.20;96.70;;;;;;4998985;28;20464;-80
2022/02/07 05:01:24;;;;;;;17.02;3.28;;;11.10;96.70;;;;;;5011336;28;20099;-81
2022/02/07 05:03:47;;;;;;;11.35;2.92;;;11.10;96.70;;;;;;5007229;28;20129;-82
2022/02/07 05:14:47;;;;;;;10.63;2.95;;;11.20;96.70;;;;;;4987380;28;20049;-82
2022/02/07 05:17:19;;;;;;;17.88;3.50;;;11.20;96.70;;;;;;4986464;28;20133;-82
2022/02/07 05:19:53;;;;;;;10.15;2.47;;;11.20;96.70;;;;;;5003941;28;20054;-82
2022/02/07 05:22:45;;;;;;;12.70;2.50;;;11.20;96.70;;;;;;4994328;28;20262;-82
2022/02/07 05:25:49;;;;;;;12.30;2.70;;;11.20;96.70;;;;;;4940333;28;20054;-82
2022/02/07 05:28:28;;;;;;;12.75;3.13;;;11.30;96.70;;;;;;4943675;28;20086;-82
2022/02/07 05:31:29;;;;;;;15.07;2.70;;;11.30;96.70;;;;;;4914523;28;20062;-80
2022/02/07 05:34:14;;;;;;;13.48;2.92;;;11.40;96.70;;;;;;4944628;28;20047;-83
2022/02/07 05:36:57;;;;;;;12.70;2.25;;;11.40;96.70;;;;;;4946094;28;20059;-82
2022/02/07 05:39:49;;;;;;;14.90;2.65;;;11.50;96.70;;;;;;4925966;28;20058;-81
2022/02/07 05:42:20;;;;;;;13.98;2.78;;;11.50;96.70;;;;;;4951240;28;20056;-82
2022/02/07 05:44:59;;;;;;;16.38;2.85;;;11.50;96.70;;;;;;4944849;28;20059;-82
2022/02/07 05:47:46;;;;;;;14.35;2.90;;;11.60;96.70;;;;;;4950089;28;20105;-82
2022/02/07 05:50:41;;;;;;;16.33;3.15;;;11.50;96.70;;;;;;4930801;28;20051;-82
2022/02/07 05:53:27;;;;;;;22.38;3.22;;;11.50;96.70;;;;;;4948243;28;20533;-82
2022/02/07 05:56:06;;;;;;;22.33;3.38;;;11.50;96.70;;;;;;4948373;28;20063;-81
2022/02/07 05:59:04;;;;;;;12.73;2.95;;;11.60;96.70;;;;;;4903076;28;20057;-83
2022/02/07 06:01:41;;;;;;;14.00;2.80;;;11.60;96.70;;;;;;5007324;28;20613;-82
2022/02/07 06:04:11;;;;;;;16.25;3.00;;;11.50;96.70;;;;;;4989500;28;20453;-82
2022/02/07 06:06:40;;;;;;;14.93;2.72;;;11.50;96.70;;;;;;4993973;28;20050;-82
2022/02/07 06:09:09;;;;;;;15.40;3.40;;;11.50;96.70;;;;;;4992669;28;20049;-82
2022/02/07 06:11:45;;;;;;;13.90;3.10;;;11.50;96.70;;;;;;5011837;28;20586;-83
2022/02/07 06:14:16;;;;;;;14.88;3.58;;;11.60;96.70;;;;;;4999645;28;20041;-83
2022/02/07 06:16:45;;;;;;;18.42;3.08;;;11.60;96.70;;;;;;4979938;28;20126;-83
2022/02/07 06:19:14;;;;;;;16.17;3.05;;;11.50;96.70;;;;;;4990469;28;20410;-82
2022/02/07 06:21:44;;;;;;;20.05;3.28;;;11.50;96.70;;;;;;4978522;28;20099;-83
2022/02/07 06:24:12;;;;;;;19.38;3.20;;;11.50;96.70;;;;;;4995092;28;20060;-83
2022/02/07 06:26:44;;;;;;;16.70;3.33;;;11.50;96.70;;;;;;4996991;28;20048;-82
2022/02/07 06:29:18;;;;;;;18.80;3.50;;;11.50;96.70;;;;;;4990921;28;20133;-83
2022/02/07 06:31:51;;;;;;;18.70;3.40;;;11.50;96.70;;;;;;5000291;28;20117;-82
2022/02/07 06:34:21;;;;;;;17.10;3.28;;;11.60;96.70;;;;;;4989576;28;20049;-82
2022/02/07 06:36:49;;;;;;;11.43;2.70;;;11.60;96.70;;;;;;4995777;28;20050;-82
2022/02/07 06:39:20;;;;;;;14.70;2.65;;;11.60;96.70;;;;;;4990022;28;20050;-82
2022/02/07 06:41:52;;;;;;;15.95;2.50;;;11.60;96.70;;;;;;4993109;28;20068;-82
2022/02/07 06:44:28;;;;;;;21.48;3.53;;;11.60;96.70;;;;;;4993670;28;20050;-81
2022/02/07 06:46:56;;;;;;;14.20;2.83;;;11.60;96.70;;;;;;5005572;28;20073;-82
2022/02/07 06:49:27;;;;;;;14.13;2.83;;;11.70;96.70;;;;;;5005871;28;20086;-82
2022/02/07 06:51:56;;;;;;;12.60;2.70;;;11.70;96.70;;;;;;4987813;28;20073;-82
2022/02/07 06:54:26;;;;;;;17.17;3.13;;;11.70;96.70;;;;;;4988020;28;20144;-82
2022/02/07 06:56:56;;;;;;;16.13;3.35;;;11.70;96.70;;;;;;4994416;28;20041;-82
2022/02/07 06:59:25;;;;;;;15.45;3.08;;;11.80;96.70;;;;;;4978622;28;20080;-82
2022/02/07 07:01:59;;;;;;;18.10;3.47;;;11.80;96.70;;;;;;5006330;28;20054;-81
2022/02/07 07:04:29;;;;;;;16.63;2.72;;;11.80;96.70;;;;;;4990254;28;20050;-82
2022/02/07 07:07:00;;;;;;;12.75;3.03;;;11.90;96.70;;;;;;5011767;28;20052;-82
2022/02/07 07:09:32;;;;;;;15.80;3.30;;;11.80;96.70;;;;;;5008013;28;20042;-81
2022/02/07 07:12:05;;;;;;;14.35;2.72;;;11.90;96.70;;;;;;4981286;28;20050;-81
2022/02/07 07:14:50;;;;;;;13.43;2.88;;;11.90;96.70;;;;;;4993512;28;20430;-82
2022/02/07 07:17:20;;;;;;;17.45;3.05;;;12.00;96.70;;;;;;4996424;28;20469;-82
2022/02/07 07:19:49;;;;;;;15.88;2.75;;;12.00;96.70;;;;;;4996569;28;20716;-82
2022/02/07 07:22:19;;;;;;;15.57;2.75;;;12.00;96.70;;;;;;4989994;28;20128;-81
2022/02/07 07:24:50;;;;;;;12.27;2.72;;;12.00;96.70;;;;;;4995316;28;20050;-81
2022/02/07 07:27:27;;;;;;;15.75;2.92;;;12.00;96.70;;;;;;5005420;28;20132;-81
2022/02/07 07:29:56;;;;;;;12.23;2.78;;;12.00;96.70;;;;;;5011279;28;20053;-82
2022/02/07 07:32:29;;;;;;;13.50;2.50;;;12.00;96.70;;;;;;4995717;28;20026;-82
2022/02/07 07:35:01;;;;;;;13.07;2.97;;;12.00;96.70;;;;;;4971369;28;20161;-81
2022/02/07 07:37:29;;;;;;;23.45;6.80;;;12.10;96.70;;;;;;4989543;28;20065;-82
2022/02/07 07:39:58;;;;;;;15.40;3.58;;;12.10;96.70;;;;;;5002807;28;20220;-81
2022/02/07 07:42:30;;;;;;;18.25;3.92;;;12.10;96.70;;;;;;5009194;28;20111;-83
2022/02/07 07:45:48;;;;;;;21.98;3.50;;;12.20;96.70;;;;;;5160449;27;20611;-84
2022/02/07 07:48:35;;;;;;;13.93;2.80;;;12.20;96.70;;;;;;5144229;27;20049;-84
2022/02/07 07:51:38;;;;;;;15.05;2.97;;;12.20;96.70;;;;;;5137240;27;20069;-83
2022/02/07 08:02:54;;;;;;;17.20;5.05;;;12.30;96.70;;;;;;5138034;27;20497;-83
2022/02/07 08:05:50;;;;;;;15.37;4.20;;;12.40;96.70;;;;;;5115918;27;20463;-86
2022/02/07 08:08:33;;;;;;;25.52;4.47;;;12.40;96.70;;;;;;5130999;27;20529;-86
2022/02/07 08:11:08;;;;;;;16.98;3.72;;;12.50;96.70;;;;;;5098708;27;20043;-85
2022/02/07 08:13:42;;;;;;;16.30;4.03;;;12.50;96.70;;;;;;5114399;27;20068;-85
2022/02/07 08:16:21;;;;;;;14.63;3.20;;;12.60;96.70;;;;;;5135452;27;20043;-84
2022/02/07 08:18:52;;;;;;;16.85;3.70;;;12.60;96.70;;;;;;5135845;27;20567;-84
2022/02/07 08:21:21;;;;;;;9.98;2.78;;;12.60;96.70;;;;;;5137853;27;20074;-84
2022/02/07 08:23:50;;;;;;;16.25;2.60;;;12.70;96.70;;;;;;5128388;27;20582;-83
2022/02/07 08:26:21;;;;;;;17.15;3.83;;;12.80;96.70;;;;;;5135527;27;20045;-83
2022/02/07 08:28:51;;;;;;;17.60;3.05;;;12.90;96.70;;;;;;5147813;27;20043;-83
2022/02/07 08:31:20;;;;;;;16.98;3.85;;;12.90;96.70;;;;;;5160958;27;20050;-83
2022/02/07 08:33:48;;;;;;;13.05;2.95;;;13.00;96.70;;;;;;5156063;27;20141;-84
2022/02/07 08:36:18;;;;;;;14.02;2.75;;;13.00;96.70;;;;;;5142195;27;20053;-83
2022/02/07 08:38:47;;;;;;;8.15;2.00;;;13.10;96.70;;;;;;5156131;27;20114;-84
2022/02/07 08:41:16;;;;;;;10.70;2.47;;;13.10;96.70;;;;;;5137379;27;20066;-85
2022/02/07 08:43:44;;;;;;;8.70;1.73;;;13.20;96.70;;;;;;5151463;27;20283;-84
2022/02/07 08:46:13;;;;;;;13.85;2.25;;;13.20;96.70;;;;;;5157993;27;20041;-84
2022/02/07 08:48:41;;;;;;;9.73;2.35;;;13.30;96.70;;;;;;5155816;27;20035;-84
2022/02/07 08:51:10;;;;;;;10.52;2.63;;;13.40;96.70;;;;;;5156567;27;20043;-85
2022/02/07 08:53:43;;;;;;;9.27;2.50;;;13.40;96.70;;;;;;5160541;27;20492;-86
2022/02/07 08:56:12;;;;;;;8.43;2.85;;;13.50;96.70;;;;;;5148604;27;20462;-86
2022/02/07 08:58:45;;;;;;;10.98;1.77;;;13.50;96.70;;;;;;5145210;27;20054;-85
2022/02/07 09:01:21;;;;;;;9.70;2.30;;;13.60;96.70;;;;;;5122457;27;20043;-84
2022/02/07 09:09:06;;;;;;;9.25;2.15;;;13.80;96.70;;;;;;5138174;27;20111;-83
2022/02/07 09:11:35;;;;;;;10.85;2.63;;;13.90;96.70;;;;;;5139482;27;20508;-82
2022/02/07 09:14:10;;;;;;;9.55;2.50;;;13.80;96.70;;;;;;5141274;27;20126;-83
2022/02/07 09:16:40;;;;;;;12.57;2.33;;;13.70;96.70;;;;;;5139210;27;20067;-87
2022/02/07 09:19:10;;;;;;;12.10;2.92;;;13.60;96.70;;;;;;5136807;27;20072;-83
2022/02/07 09:21:38;;;;;;;10.27;2.55;;;13.50;96.70;;;;;;5134378;27;20171;-84
2022/02/07 09:24:20;;;;;;;19.65;3.90;;;13.50;96.70;;;;;;5145347;27;20587;-84
2022/02/07 09:26:48;;;;;;;17.23;4.45;;;13.60;96.70;;;;;;5143094;27;20185;-85
2022/02/07 09:29:16;;;;;;;17.50;3.72;;;13.80;96.70;;;;;;5124991;27;20042;-82
2022/02/07 09:31:44;;;;;;;21.05;4.28;;;13.80;96.70;;;;;;5146181;27;20044;-83
2022/02/07 09:34:12;;;;;;;20.60;3.33;;;13.90;96.70;;;;;;5144129;27;20039;-83
2022/02/07 09:36:40;;;;;;;10.23;2.88;;;14.00;96.70;;;;;;5138418;27;20070;-85
2022/02/07 09:39:09;;;;;;;12.90;2.65;;;14.10;96.70;;;;;;5138868;27;20414;-84
2022/02/07 09:41:40;;;;;;;10.73;2.30;;;14.20;96.70;;;;;;5141947;27;20500;-83
2022/02/07 09:44:09;;;;;;;11.23;2.95;;;14.30;96.70;;;;;;5120339;27;20522;-83
2022/02/07 09:46:43;;;;;;;11.15;2.55;;;14.40;96.70;;;;;;5139771;27;20031;-83
2022/02/07 09:49:14;;;;;;;10.35;2.55;;;14.40;96.70;;;;;;5140180;27;20111;-83
2022/02/07 09:51:45;;;;;;;14.43;3.55;;;14.40;96.70;;;;;;5132657;27;20071;-83
2022/02/07 09:54:16;;;;;;;8.30;1.90;;;14.40;96.70;;;;;;5143122;27;20084;-83
2022/02/07 09:56:47;;;;;;;11.85;2.40;;;14.50;96.70;;;;;;5138513;27;20034;-82
2022/02/07 09:59:17;;;;;;;9.80;2.65;;;14.60;96.70;;;;;;5142538;27;20518;-82
2022/02/07 10:01:47;;;;;;;14.60;2.70;;;14.70;96.70;;;;;;5138139;27;20043;-82
2022/02/07 10:04:25;;;;;;;12.65;2.70;;;14.70;96.70;;;;;;5126743;27;20038;-84
2022/02/07 10:10:31;;;;;;;9.80;2.97;;;14.80;96.70;;;;;;5119137;27;21281;-86
2022/02/07 10:13:13;;;;;;;11.27;2.15;;;14.90;96.70;;;;;;5142971;27;20030;-86
2022/02/07 10:18:34;;;;;;;9.65;2.92;;;15.00;96.70;;;;;;5135758;27;20146;-86
2022/02/07 10:37:56;;;;;;;14.32;7.10;;;15.40;96.70;;;;;;5142501;27;20066;-86
2022/02/07 10:40:34;;;;;;;19.20;11.23;;;15.50;96.70;;;;;;5118509;27;20047;-87
2022/02/07 10:46:13;;;;;;;8.60;2.58;;;15.50;96.70;;;;;;5140756;27;20078;-85
2022/02/07 10:48:52;;;;;;;9.45;2.50;;;15.40;96.70;;;;;;5140371;27;20161;-87
2022/02/07 10:51:22;;;;;;;11.98;2.55;;;15.30;96.70;;;;;;5135894;27;20038;-87
2022/02/07 10:53:52;;;;;;;10.43;2.42;;;15.20;96.70;;;;;;5145361;27;20114;-87
2022/02/07 10:56:22;;;;;;;6.28;1.73;;;15.30;96.70;;;;;;5150572;27;20068;-87
2022/02/07 10:58:54;;;;;;;10.02;1.90;;;15.40;96.70;;;;;;5168107;27;20043;-87
2022/02/07 11:03:56;;;;;;;9.07;1.77;;;15.70;96.70;;;;;;5149290;27;20062;-88
2022/02/07 11:06:35;;;;;;;12.70;2.42;;;15.90;96.70;;;;;;5142576;27;20039;-85
2022/02/07 11:09:10;;;;;;;9.38;2.38;;;15.80;96.70;;;;;;5142970;27;20103;-85
2022/02/07 11:19:45;;;;;;;10.18;2.13;;;16.50;96.70;;;;;;5143870;27;20063;-89
2022/02/07 11:27:43;;;;;;;5.38;1.52;;;16.50;96.70;;;;;;5134918;27;20043;-85
2022/02/07 11:30:13;;;;;;;4.95;1.25;;;16.40;96.70;;;;;;5116281;27;20451;-83
2022/02/07 11:32:54;;;;;;;9.70;1.42;;;16.50;96.70;;;;;;5135474;27;20171;-89
2022/02/07 11:35:28;;;;;;;9.68;2.33;;;16.60;96.70;;;;;;5143928;27;20045;-88
2022/02/07 11:38:13;;;;;;;8.55;1.83;;;16.70;96.70;;;;;;5137935;27;20050;-88
2022/02/07 11:40:43;;;;;;;9.68;1.70;;;16.70;96.70;;;;;;5137085;27;20055;-88
2022/02/07 11:43:13;;;;;;;6.22;1.60;;;16.70;96.70;;;;;;5138471;27;20035;-90
2022/02/07 11:45:50;;;;;;;6.28;2.17;;;16.70;96.70;;;;;;5135979;27;20535;-87
2022/02/07 11:48:31;;;;;;;7.80;2.67;;;16.80;96.70;;;;;;5138699;27;20047;-87
2022/02/07 11:51:01;;;;;;;6.70;1.90;;;16.90;96.70;;;;;;5140039;27;20042;-88
2022/02/07 11:53:36;;;;;;;8.18;1.80;;;17.00;96.70;;;;;;5132575;27;20043;-87
2022/02/07 11:56:16;;;;;;;7.78;2.60;;;17.10;96.70;;;;;;5132931;27;20363;-89
2022/02/07 12:01:52;;;;;;;8.48;2.30;;;17.40;96.70;;;;;;5131629;27;20553;-89
2022/02/07 12:04:37;;;;;;;6.47;1.65;;;17.60;96.70;;;;;;5118209;27;20430;-88
2022/02/07 12:07:27;;;;;;;6.60;1.75;;;17.70;96.70;;;;;;5151850;27;20043;-87
2022/02/07 12:12:49;;;;;;;8.40;1.98;;;17.90;96.70;;;;;;5139942;27;20526;-89
2022/02/07 12:15:26;;;;;;;7.93;2.17;;;17.60;96.70;;;;;;5135135;27;20043;-89
2022/02/07 12:17:57;;;;;;;7.97;1.60;;;17.40;96.70;;;;;;5131900;27;20141;-89
2022/02/07 12:20:32;;;;;;;9.00;2.72;;;17.60;96.70;;;;;;5126766;27;20054;-87
2022/02/07 12:23:07;;;;;;;11.00;2.20;;;17.80;96.70;;;;;;5137943;27;20144;-90
2022/02/07 12:28:25;;;;;;;10.07;2.20;;;17.70;96.70;;;;;;5134654;27;20039;-89
2022/02/07 12:31:08;;;;;;;6.03;1.55;;;17.40;96.70;;;;;;5136057;27;20050;-89
2022/02/07 12:33:37;;;;;;;8.48;2.10;;;17.20;96.70;;;;;;5145612;27;20495;-88
2022/02/07 12:36:08;;;;;;;7.35;1.85;;;17.50;96.70;;;;;;5146761;27;20035;-88
2022/02/07 12:38:39;;;;;;;8.07;1.73;;;17.80;96.70;;;;;;5139782;27;20066;-89
2022/02/07 12:41:11;;;;;;;8.75;2.30;;;18.10;96.70;;;;;;5142294;27;20062;-88
2022/02/07 12:43:43;;;;;;;9.07;2.78;;;18.30;96.70;;;;;;5144657;27;20082;-89
2022/02/07 12:46:15;;;;;;;4.82;1.65;;;18.10;96.70;;;;;;5140518;27;20643;-90
2022/02/07 12:49:23;;;;;;;5.38;1.80;;;17.60;96.70;;;;;;5145164;27;20026;-90
2022/02/07 12:51:42;;;;;;;4.55;1.60;;;17.30;96.70;;;;;;5139688;27;20051;-89
2022/02/07 12:54:12;;;;;;;3.35;1.90;;;17.00;96.70;;;;;;5125878;27;20129;-88
2022/02/07 12:56:40;;;;;;;5.97;1.65;;;16.70;96.70;;;;;;5143352;27;20031;-87
2022/02/07 12:59:10;;;;;;;9.05;1.70;;;16.50;96.70;;;;;;5143321;27;20124;-89
2022/02/07 13:01:42;;;;;;;4.72;1.75;;;16.30;96.70;;;;;;5124649;27;20036;-88
2022/02/07 13:04:17;;;;;;;6.22;1.52;;;16.20;96.70;;;;;;5124660;27;20051;-89
2022/02/07 13:06:49;;;;;;;3.13;1.50;;;16.60;96.70;;;;;;5127966;27;20051;-86
2022/02/07 13:09:25;;;;;;;2.45;1.70;;;16.80;95.10;;;;;;5137917;27;20043;-88
2022/02/07 13:12:37;;;;;;;2.65;1.83;;;17.00;92.40;;;;;;5123061;27;20055;-87
2022/02/07 13:14:52;;;;;;;3.05;1.38;;;17.20;92.30;;;;;;5139623;27;20054;-87
2022/02/07 13:17:23;;;;;;;3.65;1.92;;;17.40;90.20;;;;;;5142425;27;20067;-86
2022/02/07 13:19:53;;;;;;;5.18;1.58;;;17.40;86.70;;;;;;5145287;27;20053;-88
2022/02/07 13:22:25;;;;;;;2.95;1.63;;;17.40;85.00;;;;;;5143243;27;20042;-87
2022/02/07 13:24:56;;;;;;;3.70;1.95;;;17.40;83.20;;;;;;5140723;27;20041;-89
2022/02/07 13:27:24;;;;;;;3.33;2.00;;;17.50;83.50;;;;;;5143278;27;20053;-88
2022/02/07 13:29:57;;;;;;;2.80;1.67;;;17.50;81.50;;;;;;5140043;27;20035;-87
2022/02/07 13:32:28;;;;;;;5.75;1.60;;;17.50;82.90;;;;;;5139143;27;20039;-88
2022/02/07 13:35:07;;;;;;;6.47;1.73;;;17.50;80.50;;;;;;5127351;27;20046;-89
2022/02/07 13:37:40;;;;;;;1.60;1.30;;;17.40;77.70;;;;;;5139584;27;20248;-88
2022/02/07 13:40:10;;;;;;;2.25;1.30;;;17.40;78.00;;;;;;5142196;27;20073;-88
2022/02/07 13:42:40;;;;;;;4.22;2.15;;;17.30;76.30;;;;;;5140475;27;20058;-88
2022/02/07 13:45:11;;;;;;;3.45;1.45;;;17.30;75.50;;;;;;5136507;27;20074;-87
2022/02/07 13:47:43;;;;;;;3.25;2.15;;;17.20;74.90;;;;;;5144178;27;20487;-88
2022/02/07 13:50:14;;;;;;;4.45;1.85;;;17.20;75.00;;;;;;5139705;27;20031;-88
2022/02/07 13:52:45;;;;;;;4.53;1.90;;;17.20;74.80;;;;;;5143787;27;20039;-88
2022/02/07 13:55:20;;;;;;;3.10;2.00;;;17.10;74.00;;;;;;5141319;27;20046;-87
2022/02/07 13:57:54;;;;;;;3.58;2.08;;;17.10;74.30;;;;;;5144381;27;20111;-89
2022/02/07 14:00:24;;;;;;;4.00;2.08;;;17.10;74.70;;;;;;5138901;27;20046;-89
2022/02/07 14:03:14;;;;;;;3.50;2.08;;;17.10;76.10;;;;;;5144196;27;20038;-88
2022/02/07 14:05:44;;;;;;;5.63;2.58;;;17.10;77.00;;;;;;5118767;27;20047;-89
2022/02/07 14:08:14;;;;;;;3.33;2.20;;;17.10;77.60;;;;;;5123926;27;20047;-90
2022/02/07 14:10:45;;;;;;;3.10;2.15;;;17.00;76.80;;;;;;5137077;27;20035;-89
2022/02/07 14:13:15;;;;;;;3.22;2.17;;;17.00;76.90;;;;;;5143545;27;20073;-88
2022/02/07 14:15:44;;;;;;;6.57;2.15;;;17.10;76.70;;;;;;5139338;27;20030;-88
2022/02/07 14:18:18;;;;;;;3.03;2.08;;;17.00;75.00;;;;;;5141036;27;20043;-88
2022/02/07 14:20:46;;;;;;;3.90;2.33;;;17.00;74.80;;;;;;5142672;27;20066;-88
2022/02/07 14:23:16;;;;;;;3.55;1.83;;;17.00;75.20;;;;;;5143363;27;20049;-88
2022/02/07 14:25:48;;;;;;;3.40;2.00;;;17.00;75.50;;;;;;5140234;27;20107;-88
2022/02/07 14:28:16;;;;;;;5.10;2.45;;;17.00;74.60;;;;;;5142834;27;20049;-89
2022/02/07 14:30:45;;;;;;;3.78;2.40;;;16.90;75.60;;;;;;5127512;27;20043;-88
2022/02/07 14:33:13;;;;;;;3.45;2.17;;;16.90;75.70;;;;;;5126368;27;20091;-89
2022/02/07 14:35:43;;;;;;;4.57;2.70;;;16.70;76.30;;;;;;5126571;27;20149;-86
2022/02/07 14:38:12;;;;;;;4.75;3.47;;;16.50;76.50;;;;;;5144267;27;20088;-88
2022/02/07 14:40:42;;;;;;;4.10;2.55;;;16.40;76.90;;;;;;5142897;27;20049;-89
2022/02/07 14:43:14;;;;;;;7.38;3.63;;;16.30;77.10;;;;;;5141963;27;20564;-90
2022/02/07 14:45:54;;;;;;;4.40;2.90;;;16.20;77.60;;;;;;5146711;27;20103;-88
2022/02/07 14:48:23;;;;;;;3.28;2.38;;;16.20;77.00;;;;;;5140413;27;20074;-88
2022/02/07 14:50:52;;;;;;;4.20;2.55;;;16.10;76.40;;;;;;5126368;27;20050;-88
2022/02/07 14:53:22;;;;;;;3.38;2.30;;;16.00;76.80;;;;;;5139331;27;20043;-88
2022/02/07 14:55:52;;;;;;;4.18;2.60;;;16.00;78.50;;;;;;5125542;27;20146;-87
2022/02/07 14:58:21;;;;;;;4.90;2.53;;;16.00;77.20;;;;;;5139283;27;20096;-88
2022/02/07 15:00:52;;;;;;;4.28;2.40;;;15.90;75.80;;;;;;5123384;27;20054;-88
2022/02/07 15:03:20;;;;;;;4.05;2.63;;;15.80;74.70;;;;;;5124423;27;20426;-88
2022/02/07 15:05:53;;;;;;;3.83;2.58;;;15.80;74.40;;;;;;5117359;27;20439;-88
2022/02/07 15:08:22;;;;;;;4.60;2.97;;;15.70;75.50;;;;;;5141256;27;20050;-88
2022/02/07 15:10:52;;;;;;;4.70;2.95;;;15.70;74.90;;;;;;5139819;27;20035;-88
2022/02/07 15:13:20;;;;;;;3.90;2.45;;;15.70;75.50;;;;;;5141377;27;20046;-89
2022/02/07 15:15:48;;;;;;;4.50;2.38;;;15.70;74.70;;;;;;5141286;27;20058;-88
2022/02/07 15:18:19;;;;;;;5.43;2.65;;;15.70;75.20;;;;;;5139741;27;20054;-89
2022/02/07 15:20:47;;;;;;;5.13;2.78;;;15.70;76.80;;;;;;5143900;27;20049;-87
2022/02/07 15:23:15;;;;;;;6.95;3.60;;;15.70;76.40;;;;;;5141057;27;20113;-89
2022/02/07 15:25:45;;;;;;;6.65;3.35;;;15.70;76.00;;;;;;5137298;27;20046;-89
2022/02/07 15:28:14;;;;;;;5.38;3.35;;;15.80;76.90;;;;;;5123043;27;20076;-89
2022/02/07 15:30:46;;;;;;;11.35;3.45;;;15.80;77.50;;;;;;5139823;27;20050;-88
2022/02/07 15:33:16;;;;;;;7.07;3.67;;;15.80;77.80;;;;;;5140094;27;20098;-88
2022/02/07 15:35:47;;;;;;;6.82;3.78;;;15.80;76.80;;;;;;5141131;27;20329;-90
2022/02/07 15:38:16;;;;;;;6.85;3.75;;;16.30;75.70;;;;;;5142166;27;20050;-88
2022/02/07 15:40:44;;;;;;;8.40;3.83;;;17.60;74.70;;;;;;5137101;27;20100;-88
2022/02/07 15:43:14;;;;;;;6.22;3.60;;;18.50;73.50;;;;;;5142335;27;20038;-85
2022/02/07 15:45:43;;;;;;;5.75;3.25;;;18.80;71.10;;;;;;5133278;27;20042;-89
2022/02/07 15:48:11;;;;;;;4.45;2.78;;;19.10;70.00;;;;;;5138926;27;20039;-87
2022/02/07 15:50:40;;;;;;;4.35;3.28;;;19.40;69.90;;;;;;5140025;27;20058;-88
2022/02/07 15:53:08;;;;;;;4.75;3.33;;;19.40;69.50;;;;;;5125467;27;20039;-89
2022/02/07 15:55:37;;;;;;;5.00;3.55;;;19.60;68.90;;;;;;5139096;27;20366;-88